Time;durP1;ratioP1;P1;durP2;ratioP2;P2;SDS_P1;SDS_P2;PMS_P1;PMS_P2;Temp;Humidity;BMP_temperature;BMP_pressure;BME280_temperature;BME280_humidity;BME280_pressure;Samples;Min_cycle;Max_cycle;Signal;HPM_P1;HPM_P2
2022/06/04 00:00:30;;;;;;;2.35;1.50;;;23.40;45.40;;;;;;5095290;28;20032;-50
2022/06/04 00:02:56;;;;;;;3.88;1.20;;;23.30;45.40;;;;;;5095033;28;20429;-51
2022/06/04 00:05:24;;;;;;;2.20;1.50;;;23.30;45.50;;;;;;5094807;28;20016;-49
2022/06/04 00:07:52;;;;;;;4.88;1.45;;;23.30;45.50;;;;;;5094868;28;20032;-49
2022/06/04 00:15:50;;;;;;;1.38;0.90;;;23.30;45.60;;;;;;5094771;28;20397;-48
2022/06/04 00:18:16;;;;;;;3.53;1.27;;;23.30;45.50;;;;;;5094656;28;20028;-52
2022/06/04 00:20:42;;;;;;;3.53;0.90;;;23.30;45.50;;;;;;5094224;28;20022;-49
2022/06/04 00:23:08;;;;;;;4.07;1.15;;;23.20;45.60;;;;;;5076770;28;20041;-49
2022/06/04 00:25:35;;;;;;;5.65;1.27;;;23.20;45.70;;;;;;5073879;28;20013;-52
2022/06/04 00:28:01;;;;;;;3.10;1.50;;;23.20;45.80;;;;;;5073873;28;20012;-51
2022/06/04 00:30:27;;;;;;;2.88;1.20;;;23.20;45.80;;;;;;5073716;28;20034;-49
2022/06/04 00:32:53;;;;;;;2.17;0.93;;;23.20;45.60;;;;;;5056119;28;20103;-54
2022/06/04 00:35:20;;;;;;;2.08;1.20;;;23.20;46.10;;;;;;5058028;28;20123;-53
2022/06/04 00:37:47;;;;;;;4.18;1.30;;;23.20;45.40;;;;;;5057050;28;20051;-53
2022/06/04 00:40:19;;;;;;;2.22;0.90;;;23.20;45.40;;;;;;5074322;28;20110;-51
2022/06/04 00:42:45;;;;;;;2.10;1.17;;;23.20;45.40;;;;;;5057046;28;20015;-52
2022/06/04 00:45:32;;;;;;;3.13;1.20;;;23.20;45.40;;;;;;5073752;28;20013;-52
2022/06/04 00:47:59;;;;;;;2.38;1.23;;;23.20;45.40;;;;;;5073537;28;20058;-52
2022/06/04 00:50:26;;;;;;;3.45;1.30;;;23.20;45.90;;;;;;5073533;28;20012;-52
2022/06/04 00:52:52;;;;;;;2.78;1.20;;;23.10;45.20;;;;;;5073647;28;20028;-50
2022/06/04 00:55:18;;;;;;;4.05;1.30;;;23.10;45.20;;;;;;5073560;28;20144;-50
2022/06/04 00:58:02;;;;;;;3.10;1.20;;;23.10;45.20;;;;;;5073558;28;20071;-47
2022/06/04 01:00:34;;;;;;;4.38;1.05;;;23.10;45.20;;;;;;5055757;28;20005;-49
2022/06/04 01:03:10;;;;;;;3.15;1.42;;;23.10;45.20;;;;;;5073568;28;20024;-48
2022/06/04 01:05:50;;;;;;;2.60;1.00;;;23.10;45.00;;;;;;5055397;28;20019;-49
2022/06/04 01:08:47;;;;;;;2.28;1.13;;;23.10;45.10;;;;;;5074065;28;20029;-47
2022/06/04 01:11:33;;;;;;;4.03;1.10;;;23.10;45.00;;;;;;5073720;28;20030;-49
2022/06/04 01:14:23;;;;;;;1.63;1.08;;;23.10;44.90;;;;;;5073841;28;20109;-48
2022/06/04 01:17:07;;;;;;;1.00;0.80;;;23.20;45.00;;;;;;5055837;28;20507;-48
2022/06/04 01:19:42;;;;;;;1.55;0.82;;;23.10;44.80;;;;;;5073479;28;20032;-47
2022/06/04 01:22:26;;;;;;;1.92;1.15;;;23.10;44.80;;;;;;5063437;28;20035;-48
2022/06/04 01:25:01;;;;;;;5.18;1.00;;;23.10;44.80;;;;;;5093250;28;20016;-50
2022/06/04 01:27:30;;;;;;;2.50;0.90;;;23.10;44.80;;;;;;5094105;28;20012;-49
2022/06/04 01:30:12;;;;;;;2.50;0.93;;;23.20;44.60;;;;;;5094420;28;20008;-48
2022/06/04 01:32:50;;;;;;;6.85;1.17;;;23.10;44.60;;;;;;5077486;28;20074;-51
2022/06/04 01:35:34;;;;;;;2.42;0.93;;;23.10;44.60;;;;;;5064389;28;20463;-50
2022/06/04 01:38:06;;;;;;;2.80;1.13;;;23.00;44.60;;;;;;5081140;28;20016;-49
2022/06/04 01:41:04;;;;;;;1.25;0.77;;;23.00;44.50;;;;;;5098989;28;20016;-54
2022/06/04 01:43:45;;;;;;;2.40;1.20;;;23.00;44.50;;;;;;5098517;28;20012;-47
2022/06/04 01:46:18;;;;;;;2.10;1.00;;;23.00;44.50;;;;;;5098275;28;20454;-48
2022/06/04 01:48:45;;;;;;;4.45;1.20;;;23.00;44.40;;;;;;5097864;28;20028;-50
2022/06/04 01:51:10;;;;;;;5.20;1.10;;;23.00;44.30;;;;;;5063671;28;20024;-50
2022/06/04 01:53:38;;;;;;;3.20;1.20;;;23.00;44.40;;;;;;5079664;28;20020;-50
2022/06/04 01:56:07;;;;;;;2.72;1.10;;;23.00;44.30;;;;;;5063144;28;20020;-48
2022/06/04 01:58:51;;;;;;;1.55;0.68;;;23.00;44.30;;;;;;5079798;28;20042;-48
2022/06/04 02:01:22;;;;;;;2.55;1.15;;;23.00;44.30;;;;;;5081020;28;20066;-47
2022/06/04 02:03:57;;;;;;;1.90;1.10;;;23.00;44.20;;;;;;5079271;28;20015;-47
2022/06/04 02:06:24;;;;;;;1.88;0.90;;;23.00;44.10;;;;;;5063455;28;20396;-48
2022/06/04 02:08:58;;;;;;;4.53;1.10;;;22.90;44.20;;;;;;5079777;28;20095;-49
2022/06/04 02:11:24;;;;;;;3.25;1.15;;;23.00;44.10;;;;;;5097240;28;20427;-47
2022/06/04 02:13:52;;;;;;;1.55;0.82;;;22.90;44.10;;;;;;5096954;28;20078;-48
2022/06/04 02:16:33;;;;;;;3.78;1.30;;;23.00;44.10;;;;;;5078801;28;20520;-48
2022/06/04 02:19:00;;;;;;;2.00;1.00;;;22.90;44.00;;;;;;5096760;28;20024;-48
2022/06/04 02:21:27;;;;;;;2.00;1.15;;;23.00;44.00;;;;;;5096464;28;20024;-48
2022/06/04 02:23:53;;;;;;;2.95;1.05;;;22.90;44.00;;;;;;5096628;28;20404;-48
2022/06/04 02:26:18;;;;;;;3.50;1.38;;;22.90;44.00;;;;;;5078189;28;20043;-49
2022/06/04 02:28:45;;;;;;;2.72;1.13;;;22.90;43.90;;;;;;5096897;28;20529;-49
2022/06/04 02:31:10;;;;;;;2.05;0.80;;;22.90;43.90;;;;;;5096857;28;20054;-51
2022/06/04 02:33:41;;;;;;;1.95;1.10;;;22.90;43.80;;;;;;5096958;28;20016;-51
2022/06/04 02:36:11;;;;;;;2.03;1.35;;;22.90;43.80;;;;;;5079537;28;20103;-49
2022/06/04 02:38:39;;;;;;;1.70;0.98;;;22.80;43.80;;;;;;5097151;28;20024;-49
2022/06/04 02:41:22;;;;;;;1.73;1.00;;;22.90;43.80;;;;;;5079698;28;20024;-48
2022/06/04 02:43:49;;;;;;;2.10;1.02;;;22.90;43.80;;;;;;5078567;28;20008;-48
2022/06/04 02:46:17;;;;;;;3.83;0.90;;;22.90;43.70;;;;;;5078618;28;20773;-49
2022/06/04 02:48:51;;;;;;;1.98;1.00;;;22.90;43.70;;;;;;5097372;28;20035;-50
2022/06/04 02:51:21;;;;;;;2.55;0.90;;;22.90;43.70;;;;;;5096868;28;20024;-48
2022/06/04 02:53:49;;;;;;;1.83;0.98;;;22.90;43.60;;;;;;5096062;28;20419;-50
2022/06/04 02:56:23;;;;;;;3.13;1.02;;;22.90;43.50;;;;;;5096235;28;20046;-53
2022/06/04 02:58:52;;;;;;;2.75;1.40;;;22.90;43.50;;;;;;5077843;28;20044;-55
2022/06/04 03:01:18;;;;;;;1.10;0.85;;;22.90;43.40;;;;;;5078376;28;20016;-51
2022/06/04 03:03:44;;;;;;;0.88;0.80;;;22.90;43.40;;;;;;5061753;28;20011;-52
2022/06/04 03:06:21;;;;;;;2.80;0.85;;;22.90;43.40;;;;;;5096058;28;20016;-50
2022/06/04 03:08:47;;;;;;;4.90;1.40;;;22.90;43.40;;;;;;5095798;28;20016;-50
2022/06/04 03:11:13;;;;;;;2.97;1.02;;;22.90;43.30;;;;;;5095674;28;20020;-49
2022/06/04 03:13:39;;;;;;;2.80;0.90;;;22.90;43.30;;;;;;5095541;28;20066;-50
2022/06/04 03:16:05;;;;;;;1.58;1.05;;;22.90;43.40;;;;;;5095658;28;20022;-49
2022/06/04 03:18:31;;;;;;;4.80;1.10;;;22.80;43.20;;;;;;5095605;28;20552;-49
2022/06/04 03:20:57;;;;;;;3.20;1.02;;;22.80;43.20;;;;;;5077318;28;20008;-50
2022/06/04 03:23:23;;;;;;;1.63;1.00;;;22.80;43.20;;;;;;5095486;28;20032;-50
2022/06/04 03:25:49;;;;;;;1.42;0.80;;;22.80;43.20;;;;;;5095608;28;20009;-50
2022/06/04 03:28:15;;;;;;;3.22;1.00;;;22.80;43.20;;;;;;5095633;28;20107;-55
2022/06/04 03:30:41;;;;;;;1.83;0.70;;;22.80;43.20;;;;;;5077350;28;20479;-54
2022/06/04 03:33:07;;;;;;;0.98;0.80;;;22.80;43.20;;;;;;5095609;28;20073;-52
2022/06/04 03:35:33;;;;;;;2.10;1.00;;;22.80;43.20;;;;;;5077539;28;20107;-55
2022/06/04 03:37:59;;;;;;;1.67;0.85;;;22.80;43.20;;;;;;5078006;28;20039;-55
2022/06/04 03:40:25;;;;;;;3.45;0.98;;;22.80;43.10;;;;;;5096111;28;20389;-55
2022/06/04 03:42:52;;;;;;;1.23;1.10;;;22.80;43.10;;;;;;5096012;28;20028;-54
2022/06/04 03:45:17;;;;;;;3.63;1.30;;;22.80;43.10;;;;;;5095625;28;20047;-54
2022/06/04 03:47:44;;;;;;;1.38;1.00;;;22.80;43.10;;;;;;5095293;28;20043;-55
2022/06/04 03:50:15;;;;;;;2.53;1.00;;;22.80;43.00;;;;;;5095190;28;20012;-53
2022/06/04 03:52:41;;;;;;;1.80;0.90;;;22.80;43.00;;;;;;5095298;28;20074;-55
2022/06/04 03:55:07;;;;;;;2.47;1.10;;;22.80;43.10;;;;;;5094878;28;20266;-52
2022/06/04 03:57:38;;;;;;;2.70;1.00;;;22.80;43.10;;;;;;5094442;28;20008;-52
2022/06/04 04:00:31;;;;;;;1.77;1.10;;;22.80;43.10;;;;;;5094964;28;20063;-54
2022/06/04 04:03:01;;;;;;;2.55;1.15;;;22.80;43.10;;;;;;5094824;28;20091;-54
2022/06/04 04:05:32;;;;;;;4.28;1.13;;;22.70;43.10;;;;;;5094178;28;20070;-53
2022/06/04 04:07:58;;;;;;;3.33;1.00;;;22.70;43.10;;;;;;5094578;28;20027;-53
2022/06/04 04:10:25;;;;;;;2.92;0.98;;;22.70;43.10;;;;;;5094259;28;20052;-53
2022/06/04 04:12:50;;;;;;;2.92;1.10;;;22.70;43.10;;;;;;5094506;28;20110;-53
2022/06/04 04:15:16;;;;;;;1.52;0.80;;;22.70;43.00;;;;;;5094440;28;20525;-52
2022/06/04 04:17:44;;;;;;;2.65;1.00;;;22.70;43.00;;;;;;5094302;28;20040;-51
2022/06/04 04:20:14;;;;;;;1.45;0.98;;;22.70;42.90;;;;;;5093863;28;20096;-53
2022/06/04 04:22:40;;;;;;;1.85;1.10;;;22.70;43.00;;;;;;5093893;28;20040;-52
2022/06/04 04:25:07;;;;;;;2.53;1.02;;;22.70;42.90;;;;;;5093873;28;20016;-48
2022/06/04 04:27:33;;;;;;;4.28;1.25;;;22.70;42.90;;;;;;5059331;28;20020;-47
2022/06/04 04:29:59;;;;;;;2.30;1.00;;;22.70;42.90;;;;;;5094178;28;20020;-47
2022/06/04 04:32:25;;;;;;;1.58;1.00;;;22.70;42.80;;;;;;5076178;28;20020;-47
2022/06/04 04:34:50;;;;;;;2.38;1.05;;;22.70;42.80;;;;;;5094483;28;20483;-50
2022/06/04 04:37:17;;;;;;;1.63;1.02;;;22.70;42.90;;;;;;5059517;28;20021;-49
2022/06/04 04:39:44;;;;;;;1.48;1.00;;;22.70;42.80;;;;;;5093797;28;20024;-50
2022/06/04 04:42:10;;;;;;;2.97;0.90;;;22.70;42.80;;;;;;5093575;28;20019;-49
2022/06/04 04:44:35;;;;;;;1.27;0.82;;;22.70;42.70;;;;;;5094198;28;20016;-54
2022/06/04 04:47:02;;;;;;;10.48;1.20;;;22.70;42.80;;;;;;5093952;28;20096;-55
2022/06/04 04:49:27;;;;;;;2.55;1.00;;;22.70;42.80;;;;;;5075747;28;20044;-55
2022/06/04 04:51:54;;;;;;;1.25;1.10;;;22.60;42.90;;;;;;5094145;28;20020;-53
2022/06/04 04:54:20;;;;;;;2.17;1.00;;;22.60;42.90;;;;;;5093735;28;20020;-58
2022/06/04 04:56:47;;;;;;;4.75;0.98;;;22.60;42.90;;;;;;5093596;28;20463;-58
2022/06/04 04:59:12;;;;;;;2.72;1.00;;;22.60;42.80;;;;;;5093629;28;20035;-58
2022/06/04 05:01:38;;;;;;;3.30;1.15;;;22.60;42.80;;;;;;5075595;28;20482;-58
2022/06/04 05:04:04;;;;;;;3.60;0.90;;;22.60;42.70;;;;;;5093194;28;20008;-58
2022/06/04 05:06:30;;;;;;;2.55;1.00;;;22.60;42.70;;;;;;5093391;28;20016;-58
2022/06/04 05:08:56;;;;;;;2.33;0.90;;;22.50;42.80;;;;;;5092635;28;20501;-59
2022/06/04 05:11:24;;;;;;;2.25;1.40;;;22.50;42.70;;;;;;5093433;28;20028;-58
2022/06/04 05:13:49;;;;;;;4.03;1.50;;;22.50;42.70;;;;;;5093291;28;20031;-58
2022/06/04 05:16:19;;;;;;;1.67;1.05;;;22.50;42.60;;;;;;5093452;28;20393;-58
2022/06/04 05:18:45;;;;;;;3.70;0.80;;;22.50;42.80;;;;;;5093353;28;20020;-58
2022/06/04 05:21:24;;;;;;;2.70;1.05;;;22.50;42.70;;;;;;5092758;28;20142;-58
2022/06/04 05:23:50;;;;;;;2.10;1.30;;;22.50;42.70;;;;;;5093135;28;20024;-59
2022/06/04 05:26:16;;;;;;;2.55;1.20;;;22.40;42.60;;;;;;5075753;28;20012;-57
2022/06/04 05:28:42;;;;;;;2.53;1.00;;;22.50;42.60;;;;;;5094045;28;20016;-59
2022/06/04 05:31:08;;;;;;;2.45;1.00;;;22.50;42.50;;;;;;5094030;28;20023;-58
2022/06/04 05:33:34;;;;;;;5.28;1.00;;;22.40;42.40;;;;;;5093852;28;20051;-58
2022/06/04 05:36:00;;;;;;;1.45;0.90;;;22.40;42.40;;;;;;5094164;28;20032;-58
2022/06/04 05:38:26;;;;;;;2.65;1.30;;;22.40;42.40;;;;;;5075836;28;20090;-58
2022/06/04 05:40:59;;;;;;;2.08;1.10;;;22.40;42.40;;;;;;5094526;28;20017;-59
2022/06/04 05:43:25;;;;;;;1.85;1.20;;;22.50;42.50;;;;;;5094754;28;20012;-59
2022/06/04 05:46:04;;;;;;;4.40;1.20;;;22.40;42.50;;;;;;5059255;28;20035;-59
2022/06/04 05:48:30;;;;;;;1.42;0.90;;;22.50;42.50;;;;;;5093735;28;20055;-58
2022/06/04 05:50:56;;;;;;;1.70;0.90;;;22.50;42.40;;;;;;5075721;28;20024;-59
2022/06/04 05:53:22;;;;;;;4.07;1.25;;;22.50;42.40;;;;;;5075365;28;20158;-53
2022/06/04 05:55:48;;;;;;;2.15;0.90;;;22.50;42.40;;;;;;5093192;28;20028;-57
2022/06/04 05:58:14;;;;;;;3.35;1.15;;;22.50;42.40;;;;;;5075071;28;20028;-54
2022/06/04 06:00:40;;;;;;;3.22;1.40;;;22.40;42.30;;;;;;5075184;28;20463;-55
2022/06/04 06:03:06;;;;;;;1.75;1.13;;;22.40;42.30;;;;;;5092831;28;20463;-58
2022/06/04 06:05:32;;;;;;;6.10;1.20;;;22.40;42.30;;;;;;5075543;28;20065;-55
2022/06/04 06:07:58;;;;;;;2.92;1.00;;;22.40;42.20;;;;;;5074756;28;20036;-54
2022/06/04 06:10:23;;;;;;;1.85;1.02;;;22.40;42.20;;;;;;5092724;28;20020;-55
2022/06/04 06:12:50;;;;;;;2.05;1.13;;;22.40;42.30;;;;;;5075136;28;20032;-50
2022/06/04 06:15:16;;;;;;;3.72;1.20;;;22.30;42.20;;;;;;5093276;28;20099;-50
2022/06/04 06:17:42;;;;;;;1.38;0.90;;;22.30;42.30;;;;;;5075537;28;20028;-51
2022/06/04 06:20:09;;;;;;;4.47;1.23;;;22.30;42.30;;;;;;5076736;28;20024;-52
2022/06/04 06:22:35;;;;;;;2.90;1.00;;;22.30;42.20;;;;;;5094833;28;20048;-52
2022/06/04 06:25:05;;;;;;;3.80;1.30;;;22.30;42.30;;;;;;5096827;28;20070;-51
2022/06/04 06:27:31;;;;;;;2.03;1.10;;;22.30;42.30;;;;;;5096672;28;20020;-51
2022/06/04 06:29:57;;;;;;;5.35;1.20;;;22.30;42.20;;;;;;5096452;28;20091;-51
2022/06/04 06:32:24;;;;;;;2.58;1.20;;;22.30;42.20;;;;;;5096295;28;20609;-53
2022/06/04 06:34:50;;;;;;;2.90;1.25;;;22.30;42.20;;;;;;5061744;28;20031;-54
2022/06/04 06:37:16;;;;;;;3.08;1.38;;;22.40;42.30;;;;;;5096390;28;20013;-53
2022/06/04 06:39:42;;;;;;;5.32;1.30;;;22.40;42.30;;;;;;5096416;28;20035;-53
2022/06/04 06:42:08;;;;;;;1.90;0.90;;;22.40;42.30;;;;;;5096172;28;20390;-50
2022/06/04 06:44:34;;;;;;;3.15;1.15;;;22.40;42.30;;;;;;5078073;28;20060;-54
2022/06/04 06:47:00;;;;;;;3.00;0.95;;;22.40;42.30;;;;;;5061367;28;20016;-51
2022/06/04 06:49:28;;;;;;;2.63;1.20;;;22.40;42.30;;;;;;5097124;28;20028;-51
2022/06/04 06:52:01;;;;;;;3.45;1.10;;;22.40;42.30;;;;;;5097387;28;20522;-50
2022/06/04 06:54:28;;;;;;;2.05;0.98;;;22.20;42.40;;;;;;5096911;28;20047;-50
2022/06/04 06:56:56;;;;;;;2.50;1.20;;;22.30;42.50;;;;;;5096133;28;20026;-49
2022/06/04 06:59:23;;;;;;;3.67;1.35;;;22.30;42.50;;;;;;5095435;28;20028;-48
2022/06/04 07:01:49;;;;;;;3.33;1.27;;;22.30;42.60;;;;;;5097410;28;20043;-52
2022/06/04 07:04:15;;;;;;;3.08;1.40;;;22.30;42.40;;;;;;5097270;28;20017;-55
2022/06/04 07:06:43;;;;;;;2.97;1.40;;;22.30;42.40;;;;;;5095582;28;20014;-52
2022/06/04 07:09:35;;;;;;;1.98;1.00;;;22.30;42.40;;;;;;5095971;28;20091;-58
2022/06/04 07:12:01;;;;;;;2.50;1.08;;;22.30;42.50;;;;;;5091630;28;20028;-54
2022/06/04 07:14:28;;;;;;;1.90;1.10;;;22.40;42.40;;;;;;5095726;28;20020;-50
2022/06/04 07:16:54;;;;;;;3.08;1.20;;;22.40;42.50;;;;;;5078233;28;20039;-57
2022/06/04 07:19:21;;;;;;;4.82;1.25;;;22.40;42.50;;;;;;5078966;28;20031;-54
2022/06/04 07:21:47;;;;;;;2.63;1.38;;;22.40;42.50;;;;;;5096372;28;20483;-53
2022/06/04 07:24:13;;;;;;;4.05;1.13;;;22.40;42.50;;;;;;5096226;28;20052;-57
2022/06/04 07:26:39;;;;;;;2.35;1.15;;;22.40;42.50;;;;;;5096481;28;20073;-51
2022/06/04 07:29:05;;;;;;;3.83;1.30;;;22.40;42.60;;;;;;5096694;28;20020;-56
2022/06/04 07:31:31;;;;;;;1.70;0.95;;;22.40;42.60;;;;;;5095788;28;20019;-52
2022/06/04 07:33:59;;;;;;;5.20;1.63;;;22.40;42.60;;;;;;5096528;28;20418;-52
2022/06/04 07:36:29;;;;;;;2.42;1.20;;;22.40;42.60;;;;;;5078603;28;20012;-50
2022/06/04 07:38:55;;;;;;;3.03;1.30;;;22.40;42.80;;;;;;5096058;28;20030;-50
2022/06/04 07:41:23;;;;;;;2.60;1.40;;;22.40;42.80;;;;;;5095314;28;20004;-51
2022/06/04 07:43:50;;;;;;;2.72;1.20;;;22.40;43.00;;;;;;5095122;28;20061;-51
2022/06/04 07:46:17;;;;;;;3.03;1.60;;;22.40;43.00;;;;;;5096358;28;20012;-50
2022/06/04 07:48:43;;;;;;;6.53;1.60;;;22.40;43.00;;;;;;5096248;28;20467;-50
2022/06/04 07:51:09;;;;;;;3.45;1.58;;;22.40;43.00;;;;;;5095684;28;20024;-50
2022/06/04 07:53:35;;;;;;;2.95;1.42;;;22.40;43.00;;;;;;5095774;28;20020;-50
2022/06/04 07:56:08;;;;;;;3.75;1.35;;;22.40;43.00;;;;;;5077338;28;20074;-52
2022/06/04 07:58:34;;;;;;;2.45;1.40;;;22.40;43.20;;;;;;5095518;28;20024;-54
2022/06/04 08:01:01;;;;;;;1.90;1.20;;;22.40;43.10;;;;;;5077812;28;20016;-52
2022/06/04 08:03:27;;;;;;;5.00;1.77;;;22.50;43.20;;;;;;5095794;28;20086;-49
2022/06/04 08:05:52;;;;;;;3.28;1.55;;;22.50;43.20;;;;;;5078268;28;20017;-51
2022/06/04 08:08:18;;;;;;;4.97;1.30;;;22.50;43.20;;;;;;5095975;28;20012;-54
2022/06/04 08:10:48;;;;;;;2.50;1.17;;;22.50;43.30;;;;;;5095451;28;20422;-56
2022/06/04 08:13:26;;;;;;;4.18;1.60;;;22.50;43.30;;;;;;5094827;28;20012;-52
2022/06/04 08:15:55;;;;;;;2.70;1.40;;;22.50;43.40;;;;;;5077988;28;20106;-54
2022/06/04 08:18:21;;;;;;;6.60;1.50;;;22.50;43.40;;;;;;5094368;28;20554;-51
2022/06/04 08:20:47;;;;;;;3.65;1.63;;;22.50;43.50;;;;;;5076426;28;20044;-58
2022/06/04 08:23:17;;;;;;;2.88;1.20;;;22.50;44.10;;;;;;5094773;28;20055;-50
2022/06/04 08:25:47;;;;;;;3.28;1.27;;;22.50;43.60;;;;;;5095039;28;20437;-49
2022/06/04 08:28:16;;;;;;;4.53;1.53;;;22.50;43.70;;;;;;5060495;28;20031;-49
2022/06/04 08:30:43;;;;;;;3.65;1.50;;;22.50;43.70;;;;;;5094406;28;20250;-55
2022/06/04 08:33:08;;;;;;;2.42;1.13;;;22.50;43.80;;;;;;5094095;28;20070;-49
2022/06/04 08:35:34;;;;;;;2.35;1.42;;;22.50;43.80;;;;;;5093983;28;20435;-51
2022/06/04 08:38:00;;;;;;;3.95;1.48;;;22.60;43.90;;;;;;5094120;28;20039;-50
2022/06/04 08:40:39;;;;;;;3.05;1.48;;;22.60;43.90;;;;;;5076223;28;20024;-52
2022/06/04 08:43:20;;;;;;;3.00;1.65;;;22.60;43.90;;;;;;5074974;28;20011;-50
2022/06/04 08:45:46;;;;;;;3.13;1.52;;;22.60;43.90;;;;;;5076584;28;20043;-53
2022/06/04 08:48:30;;;;;;;4.78;2.00;;;22.50;44.00;;;;;;5075666;28;20016;-49
2022/06/04 08:50:56;;;;;;;6.95;1.73;;;22.60;44.00;;;;;;5077880;28;20016;-49
2022/06/04 08:53:27;;;;;;;3.83;1.80;;;22.60;44.10;;;;;;5075829;28;20023;-50
2022/06/04 08:59:49;;;;;;;3.78;1.70;;;22.60;44.20;;;;;;4978082;28;20038;-52
2022/06/04 09:02:18;;;;;;;4.65;1.75;;;22.60;44.70;;;;;;4975801;28;20022;-50
2022/06/04 09:04:47;;;;;;;4.57;1.77;;;22.60;44.20;;;;;;4975750;28;20029;-53
2022/06/04 09:07:22;;;;;;;4.80;1.70;;;22.60;44.20;;;;;;4991720;28;20026;-49
2022/06/04 09:09:55;;;;;;;5.32;1.60;;;22.60;44.30;;;;;;4991724;28;20035;-53
2022/06/04 09:12:36;;;;;;;5.57;1.90;;;22.60;44.50;;;;;;4991774;28;20067;-53
2022/06/04 09:15:18;;;;;;;4.45;1.63;;;22.60;44.70;;;;;;4991950;28;20019;-58
2022/06/04 09:17:54;;;;;;;4.68;1.80;;;22.50;44.80;;;;;;4975835;28;20109;-58
2022/06/04 09:20:22;;;;;;;4.00;2.08;;;22.60;44.90;;;;;;4992524;28;20014;-57
2022/06/04 09:22:48;;;;;;;6.28;2.00;;;22.60;45.00;;;;;;4993045;28;20137;-58
2022/06/04 09:25:18;;;;;;;3.50;1.98;;;22.60;45.00;;;;;;4993049;28;20046;-57
2022/06/04 09:27:53;;;;;;;4.07;1.90;;;22.60;44.90;;;;;;4975922;28;20065;-58
2022/06/04 09:30:26;;;;;;;4.63;1.80;;;22.60;44.90;;;;;;5051581;28;20467;-58
2022/06/04 09:33:13;;;;;;;4.25;1.85;;;22.60;45.00;;;;;;5093886;28;20008;-60
2022/06/04 09:35:39;;;;;;;6.18;2.15;;;22.60;45.10;;;;;;5093513;28;20008;-57
2022/06/04 09:38:05;;;;;;;3.28;1.70;;;22.60;45.20;;;;;;5075446;28;20512;-57
2022/06/04 09:40:34;;;;;;;3.42;1.83;;;22.60;45.20;;;;;;5093721;28;20016;-56
2022/06/04 09:43:14;;;;;;;3.75;2.00;;;22.60;45.20;;;;;;5075361;28;20019;-57
2022/06/04 09:45:40;;;;;;;5.93;2.58;;;22.70;45.20;;;;;;5093335;28;20016;-55
2022/06/04 09:48:21;;;;;;;3.45;1.77;;;22.70;45.10;;;;;;5093151;28;20016;-55
2022/06/04 09:50:51;;;;;;;3.17;2.03;;;22.70;45.20;;;;;;5058683;28;20013;-57
2022/06/04 09:53:24;;;;;;;5.78;2.20;;;22.70;45.40;;;;;;5093689;28;20031;-54
2022/06/04 09:55:57;;;;;;;3.58;2.10;;;22.60;45.40;;;;;;5097509;28;20161;-53
2022/06/04 09:58:34;;;;;;;3.78;1.88;;;22.70;45.50;;;;;;5080357;28;20080;-54
2022/06/04 10:01:02;;;;;;;5.65;2.20;;;22.70;45.50;;;;;;5096883;28;20012;-53
2022/06/04 10:03:29;;;;;;;4.95;2.05;;;22.70;45.50;;;;;;5078613;28;20143;-54
2022/06/04 10:06:04;;;;;;;3.55;2.10;;;22.70;45.60;;;;;;5096854;28;20142;-51
2022/06/04 10:08:30;;;;;;;4.75;2.53;;;22.70;45.70;;;;;;5096686;28;20027;-55
2022/06/04 10:11:04;;;;;;;4.75;2.20;;;22.70;45.70;;;;;;5096904;28;20005;-49
2022/06/04 10:13:43;;;;;;;5.28;1.98;;;22.70;45.80;;;;;;5097086;28;20027;-52
2022/06/04 10:16:33;;;;;;;6.15;2.00;;;22.70;45.80;;;;;;5096951;28;20087;-53
2022/06/04 10:19:16;;;;;;;6.45;2.33;;;22.70;45.80;;;;;;5096892;28;20028;-54
2022/06/04 10:21:43;;;;;;;6.10;2.13;;;22.80;45.90;;;;;;5097065;28;20071;-55
2022/06/04 10:24:22;;;;;;;5.45;2.25;;;22.80;46.00;;;;;;5079129;28;20442;-54
2022/06/04 10:27:32;;;;;;;3.28;2.20;;;22.70;46.10;;;;;;5098164;28;20497;-55
2022/06/04 10:30:02;;;;;;;3.38;2.08;;;22.70;46.10;;;;;;5098542;28;20089;-52
2022/06/04 10:32:31;;;;;;;4.07;2.42;;;22.80;46.20;;;;;;5079872;28;20433;-55
2022/06/04 10:35:06;;;;;;;4.13;2.43;;;22.70;46.30;;;;;;5097766;28;20048;-49
2022/06/04 10:37:53;;;;;;;4.20;2.15;;;22.70;46.30;;;;;;5098057;28;20024;-52
2022/06/04 10:40:51;;;;;;;3.35;2.33;;;22.70;46.30;;;;;;5080567;28;20035;-55
2022/06/04 10:43:45;;;;;;;4.25;2.17;;;22.70;46.40;;;;;;5059942;28;20490;-54
2022/06/04 10:46:30;;;;;;;4.75;2.40;;;22.70;46.40;;;;;;5097546;28;20016;-49
2022/06/04 10:49:12;;;;;;;4.03;2.17;;;22.80;46.60;;;;;;5096630;28;20020;-50
2022/06/04 10:51:54;;;;;;;4.20;2.50;;;22.80;46.60;;;;;;5096538;28;20016;-53
2022/06/04 10:54:41;;;;;;;3.63;2.30;;;22.80;46.80;;;;;;5096024;28;20019;-51
2022/06/04 10:57:13;;;;;;;5.05;2.35;;;22.80;46.80;;;;;;5095984;28;20020;-50
2022/06/04 10:59:40;;;;;;;5.32;2.60;;;22.80;46.90;;;;;;5095933;28;20426;-54
2022/06/04 11:02:26;;;;;;;4.80;2.50;;;22.80;47.00;;;;;;5078805;28;20012;-51
2022/06/04 11:04:59;;;;;;;5.25;2.40;;;22.80;47.10;;;;;;5078738;28;20027;-50
2022/06/04 11:07:48;;;;;;;6.82;2.58;;;22.80;46.90;;;;;;5095748;28;20012;-50
2022/06/04 11:10:16;;;;;;;6.70;2.42;;;22.80;46.90;;;;;;5095978;28;20072;-50
2022/06/04 11:12:47;;;;;;;4.75;2.63;;;22.80;46.90;;;;;;5095994;28;20016;-49
2022/06/04 11:15:23;;;;;;;;;;;22.80;47.00;;;;;;5078926;28;20016;-50
2022/06/04 11:18:12;;;;;;;4.18;2.25;;;22.80;47.10;;;;;;5096261;28;19900;-52
2022/06/04 11:20:55;;;;;;;5.88;2.65;;;22.80;47.00;;;;;;5095415;28;20026;-50
2022/06/04 11:23:39;;;;;;;3.58;2.35;;;22.90;47.10;;;;;;5095105;28;20063;-50
2022/06/04 11:26:26;;;;;;;4.43;2.55;;;22.80;47.10;;;;;;5095302;28;20048;-49
2022/06/04 11:28:52;;;;;;;5.85;2.60;;;22.90;47.20;;;;;;5062846;28;20474;-49
2022/06/04 11:31:33;;;;;;;4.28;3.00;;;22.90;47.30;;;;;;5077412;28;20051;-49
2022/06/04 11:34:38;;;;;;;4.43;2.70;;;22.90;47.50;;;;;;5095268;28;20028;-48
2022/06/04 11:37:07;;;;;;;3.83;2.35;;;22.90;47.40;;;;;;5065419;28;20036;-47
2022/06/04 11:39:41;;;;;;;4.13;2.40;;;22.90;47.50;;;;;;5095096;28;20031;-51
2022/06/04 11:42:16;;;;;;;7.03;2.97;;;22.90;47.60;;;;;;5094944;28;20027;-50
2022/06/04 11:44:51;;;;;;;4.45;2.40;;;22.90;47.50;;;;;;5094817;28;20410;-49
2022/06/04 11:47:34;;;;;;;6.63;2.70;;;23.00;47.50;;;;;;5094828;28;20024;-51
2022/06/04 11:50:31;;;;;;;4.13;2.65;;;22.90;47.60;;;;;;5076717;28;20016;-52
2022/06/04 11:53:09;;;;;;;4.47;2.67;;;23.00;47.70;;;;;;5079051;28;20012;-50
2022/06/04 11:55:40;;;;;;;7.03;2.55;;;23.00;47.60;;;;;;5078126;28;20020;-49
2022/06/04 11:58:19;;;;;;;5.18;2.75;;;23.00;47.60;;;;;;5078679;28;20023;-53
2022/06/04 12:00:46;;;;;;;6.75;2.58;;;23.00;47.70;;;;;;5079509;28;20027;-48
2022/06/04 12:03:29;;;;;;;5.25;2.53;;;23.00;47.70;;;;;;5096609;28;20016;-50
2022/06/04 12:06:06;;;;;;;5.07;3.10;;;23.00;47.60;;;;;;5078935;28;20082;-52
2022/06/04 12:08:38;;;;;;;5.35;2.70;;;23.10;47.70;;;;;;5078635;28;20016;-50
2022/06/04 12:11:19;;;;;;;4.57;3.20;;;23.10;47.70;;;;;;5096687;28;20024;-49
2022/06/04 12:14:09;;;;;;;6.20;2.70;;;23.10;47.80;;;;;;5079622;28;20016;-48
2022/06/04 12:16:47;;;;;;;3.70;2.72;;;23.10;47.70;;;;;;5063507;28;20022;-48
2022/06/04 12:25:09;;;;;;;10.40;3.25;;;23.10;47.80;;;;;;5094937;28;20032;-50
2022/06/04 12:27:35;;;;;;;4.30;2.90;;;23.20;48.00;;;;;;5076462;28;20525;-50
2022/06/04 12:30:01;;;;;;;6.22;3.55;;;23.10;48.00;;;;;;5094055;28;20012;-47
2022/06/04 12:32:34;;;;;;;13.50;3.47;;;23.10;48.00;;;;;;5076169;28;20016;-47
2022/06/04 12:35:09;;;;;;;5.30;3.20;;;23.10;48.00;;;;;;5060198;28;20023;-50
2022/06/04 12:37:37;;;;;;;7.03;3.33;;;23.20;48.20;;;;;;5094336;28;20016;-48
2022/06/04 12:40:24;;;;;;;5.85;3.10;;;23.20;48.20;;;;;;5076893;28;20032;-52
2022/06/04 12:43:02;;;;;;;6.50;3.20;;;23.20;48.20;;;;;;5094559;28;20016;-51
2022/06/04 12:45:38;;;;;;;8.40;3.50;;;23.20;48.20;;;;;;5094705;28;20012;-51
2022/06/04 12:48:24;;;;;;;4.88;3.03;;;23.20;48.20;;;;;;5094716;28;20020;-49
2022/06/04 12:51:06;;;;;;;4.70;2.90;;;23.30;48.20;;;;;;5077042;28;20459;-51
2022/06/04 12:53:33;;;;;;;5.07;3.38;;;23.30;48.20;;;;;;5078218;28;20023;-51
2022/06/04 12:56:05;;;;;;;6.30;3.53;;;23.30;48.40;;;;;;5094659;28;20079;-48
2022/06/04 12:58:30;;;;;;;;;;;23.30;48.30;;;;;;5077535;28;20034;-48
2022/06/04 13:01:13;;;;;;;4.65;3.30;;;23.40;48.30;;;;;;5094596;28;20417;-51
2022/06/04 13:03:39;;;;;;;5.50;3.55;;;23.40;48.40;;;;;;5094459;28;20015;-49
2022/06/04 13:06:47;;;;;;;5.38;3.80;;;23.40;48.50;;;;;;5094694;28;20012;-51
2022/06/04 13:09:45;;;;;;;6.40;3.78;;;23.40;48.50;;;;;;5081838;28;20032;-50
2022/06/04 13:12:19;;;;;;;7.68;3.47;;;23.40;48.70;;;;;;5054281;28;20024;-54
2022/06/04 13:14:54;;;;;;;6.68;4.07;;;23.40;48.60;;;;;;5094446;28;20512;-49
2022/06/04 13:17:44;;;;;;;7.78;3.67;;;23.40;48.60;;;;;;5076538;28;20020;-49
2022/06/04 13:20:38;;;;;;;4.55;3.70;;;23.40;48.70;;;;;;5094228;28;20086;-51
2022/06/04 13:23:23;;;;;;;5.78;3.90;;;23.40;48.80;;;;;;5093905;28;20044;-49
2022/06/04 13:25:51;;;;;;;7.40;3.25;;;23.50;48.70;;;;;;5076629;28;20005;-52